Time;durP1;ratioP1;P1;durP2;ratioP2;P2;SDS_P1;SDS_P2;PMS_P1;PMS_P2;Temp;Humidity;BMP_temperature;BMP_pressure;BME280_temperature;BME280_humidity;BME280_pressure;Samples;Min_cycle;Max_cycle;Signal;HPM_P1;HPM_P2
2023/03/19 00:02:07;;;;;;;7.03;6.33;;;11.10;99.90;;;;;;5004319;28;20259;-71
2023/03/19 00:04:34;;;;;;;6.80;6.10;;;11.20;99.90;;;;;;5007224;28;20224;-71
2023/03/19 00:07:01;;;;;;;6.63;5.97;;;11.20;99.90;;;;;;5006955;28;20313;-71
2023/03/19 00:09:28;;;;;;;7.10;5.67;;;11.20;99.90;;;;;;5006744;28;20244;-71
2023/03/19 00:11:55;;;;;;;7.10;6.20;;;11.10;99.90;;;;;;4996435;28;20301;-71
2023/03/19 00:14:22;;;;;;;7.20;6.20;;;11.10;99.90;;;;;;4986364;28;20210;-71
2023/03/19 00:16:50;;;;;;;9.57;5.80;;;11.10;99.90;;;;;;4986205;28;20825;-71
2023/03/19 00:19:17;;;;;;;6.77;5.97;;;11.10;99.90;;;;;;5005899;28;20288;-71
2023/03/19 00:21:44;;;;;;;7.77;6.30;;;11.10;99.90;;;;;;5005514;28;20304;-70
2023/03/19 00:24:11;;;;;;;7.80;6.23;;;11.10;99.90;;;;;;5005773;28;20712;-70
2023/03/19 00:26:38;;;;;;;8.07;6.20;;;11.00;99.90;;;;;;5005444;28;20320;-70
2023/03/19 00:29:06;;;;;;;7.27;5.77;;;11.00;99.90;;;;;;5006089;28;20288;-69
2023/03/19 00:31:33;;;;;;;8.80;6.23;;;10.90;99.90;;;;;;5005334;28;20225;-69
2023/03/19 00:34:02;;;;;;;7.90;6.63;;;10.90;99.90;;;;;;5005937;28;20317;-69
2023/03/19 00:36:30;;;;;;;7.60;6.23;;;10.90;99.90;;;;;;5005984;28;20205;-70
2023/03/19 00:38:57;;;;;;;7.57;6.77;;;10.90;99.90;;;;;;5005663;28;20498;-69
2023/03/19 00:41:24;;;;;;;7.63;6.77;;;10.90;99.90;;;;;;5005492;28;20224;-69
2023/03/19 00:43:53;;;;;;;7.60;6.83;;;10.90;99.90;;;;;;5005332;28;20209;-69
2023/03/19 00:46:21;;;;;;;7.73;6.73;;;10.90;99.90;;;;;;5004613;28;20672;-69
2023/03/19 00:48:48;;;;;;;8.23;6.50;;;10.90;99.90;;;;;;5005319;28;20375;-70
2023/03/19 00:51:16;;;;;;;10.90;8.73;;;10.90;99.90;;;;;;5004248;28;20606;-70
2023/03/19 00:53:44;;;;;;;11.87;8.83;;;10.80;99.90;;;;;;5004561;28;20626;-70
2023/03/19 00:56:12;;;;;;;12.83;9.83;;;10.80;99.90;;;;;;5005407;28;20300;-70
2023/03/19 00:58:40;;;;;;;12.83;10.10;;;10.70;99.90;;;;;;5004899;28;20754;-69
2023/03/19 01:01:08;;;;;;;13.00;9.33;;;10.70;99.90;;;;;;5005355;28;20201;-70
2023/03/19 01:03:35;;;;;;;9.57;8.57;;;10.70;99.90;;;;;;5004682;28;20212;-70
2023/03/19 01:06:02;;;;;;;8.87;7.33;;;10.60;99.90;;;;;;5005061;28;20219;-70
2023/03/19 01:08:30;;;;;;;8.67;7.27;;;10.60;99.90;;;;;;5004894;28;21049;-70
2023/03/19 01:11:04;;;;;;;8.50;7.60;;;10.60;99.90;;;;;;4964216;28;1194211;-70
2023/03/19 01:13:31;;;;;;;9.17;6.73;;;10.60;99.90;;;;;;5005701;28;20570;-69
2023/03/19 01:15:58;;;;;;;6.87;6.17;;;10.50;99.90;;;;;;5005813;28;20289;-70
2023/03/19 01:18:25;;;;;;;7.57;6.23;;;10.50;99.90;;;;;;5005703;28;20212;-70
2023/03/19 01:20:51;;;;;;;8.17;6.13;;;10.40;99.90;;;;;;5005313;28;20219;-71
2023/03/19 01:23:18;;;;;;;8.93;6.40;;;10.40;99.90;;;;;;5005823;28;20304;-71
2023/03/19 01:25:47;;;;;;;7.77;6.40;;;10.40;99.90;;;;;;5005731;28;20220;-71
2023/03/19 01:28:14;;;;;;;7.97;6.53;;;10.40;99.90;;;;;;5005719;28;20205;-71
2023/03/19 01:30:41;;;;;;;7.07;6.37;;;10.40;99.90;;;;;;5005507;28;20728;-71
2023/03/19 01:33:07;;;;;;;8.87;6.47;;;10.40;99.90;;;;;;5005690;28;20218;-71
2023/03/19 01:35:34;;;;;;;6.80;6.10;;;10.40;99.90;;;;;;5005051;28;20305;-71
2023/03/19 01:38:01;;;;;;;6.93;6.23;;;10.40;99.90;;;;;;5005302;28;20663;-71
2023/03/19 01:40:30;;;;;;;8.70;6.67;;;10.40;99.90;;;;;;5005388;28;20833;-71
2023/03/19 01:43:14;;;;;;;6.77;6.10;;;10.40;99.90;;;;;;4987664;28;20229;-71
2023/03/19 01:45:42;;;;;;;8.10;5.93;;;10.30;99.90;;;;;;4986007;28;20297;-71
2023/03/19 01:48:19;;;;;;;7.50;6.27;;;10.30;99.90;;;;;;4985748;28;20209;-71
2023/03/19 01:50:49;;;;;;;7.07;6.37;;;10.30;99.90;;;;;;5004204;28;20253;-69
2023/03/19 01:53:18;;;;;;;8.47;6.50;;;10.30;99.90;;;;;;5005428;28;20221;-69
2023/03/19 01:55:46;;;;;;;10.00;7.33;;;10.30;99.90;;;;;;5005259;28;20217;-70
2023/03/19 01:58:14;;;;;;;7.40;6.70;;;10.30;99.90;;;;;;5004328;28;20664;-71
2023/03/19 02:00:42;;;;;;;8.63;7.00;;;10.30;99.90;;;;;;5005018;28;20207;-71
2023/03/19 02:03:10;;;;;;;8.30;7.50;;;10.40;99.90;;;;;;5005426;28;20209;-71
2023/03/19 02:05:39;;;;;;;11.93;8.83;;;10.40;99.90;;;;;;5004841;28;20205;-72
2023/03/19 02:08:10;;;;;;;14.53;11.20;;;10.30;99.90;;;;;;5005297;28;20224;-69
2023/03/19 02:10:37;;;;;;;15.23;11.00;;;10.30;99.90;;;;;;5005035;28;20605;-68
2023/03/19 02:13:04;;;;;;;18.50;12.07;;;10.30;99.90;;;;;;4994078;28;20312;-68
2023/03/19 02:15:32;;;;;;;13.20;10.53;;;10.30;99.90;;;;;;5022033;28;20220;-68
2023/03/19 02:17:59;;;;;;;11.37;9.63;;;10.30;99.90;;;;;;5024625;28;20602;-69
2023/03/19 02:20:30;;;;;;;13.40;9.93;;;10.30;99.90;;;;;;5024666;28;20212;-69
2023/03/19 02:23:05;;;;;;;11.20;10.00;;;10.30;99.90;;;;;;5010949;28;20201;-69
2023/03/19 02:25:38;;;;;;;10.70;8.80;;;10.30;99.90;;;;;;5004787;28;20538;-69
2023/03/19 02:28:08;;;;;;;12.17;8.90;;;10.30;99.90;;;;;;5004752;28;20300;-69
2023/03/19 02:30:35;;;;;;;11.50;9.27;;;10.30;99.90;;;;;;5004905;28;20600;-69
2023/03/19 02:33:02;;;;;;;10.87;9.33;;;10.30;99.90;;;;;;5005166;28;20212;-70
2023/03/19 02:35:33;;;;;;;10.30;9.10;;;10.30;99.90;;;;;;5004760;28;20206;-70
2023/03/19 02:38:03;;;;;;;11.80;8.73;;;10.40;99.90;;;;;;5004499;28;20734;-71
2023/03/19 02:40:34;;;;;;;11.47;8.83;;;10.30;99.90;;;;;;5004574;28;20292;-70
2023/03/19 02:43:01;;;;;;;10.90;8.50;;;10.30;99.90;;;;;;5009893;28;20648;-70
2023/03/19 02:45:31;;;;;;;9.90;8.37;;;10.30;99.90;;;;;;5004468;28;20225;-70
2023/03/19 02:47:59;;;;;;;9.40;8.30;;;10.30;99.90;;;;;;5004835;28;20253;-69
2023/03/19 02:50:26;;;;;;;10.27;9.10;;;10.40;99.90;;;;;;5004746;28;20213;-70
2023/03/19 02:52:53;;;;;;;10.87;8.90;;;10.40;99.90;;;;;;5004823;28;20209;-70
2023/03/19 02:55:21;;;;;;;9.97;8.97;;;10.40;99.90;;;;;;5005191;28;20241;-70
2023/03/19 02:57:48;;;;;;;10.17;8.67;;;10.50;99.90;;;;;;5004441;28;20712;-69
2023/03/19 03:00:17;;;;;;;10.10;8.70;;;10.50;99.90;;;;;;4985151;28;20657;-70
2023/03/19 03:02:45;;;;;;;9.07;8.17;;;10.60;99.90;;;;;;5008020;28;20208;-70
2023/03/19 03:05:13;;;;;;;10.13;9.13;;;10.50;99.90;;;;;;5009334;28;20264;-69
2023/03/19 03:07:42;;;;;;;10.63;9.07;;;10.60;99.90;;;;;;5004632;28;20210;-70
2023/03/19 03:10:10;;;;;;;13.23;9.20;;;10.60;99.90;;;;;;5008108;28;20245;-70
2023/03/19 03:12:37;;;;;;;12.43;8.43;;;10.60;99.90;;;;;;5007852;28;20241;-70
2023/03/19 03:15:05;;;;;;;10.87;8.50;;;10.70;99.90;;;;;;5008086;28;20742;-69
2023/03/19 03:17:32;;;;;;;9.90;8.60;;;10.70;99.90;;;;;;5008203;28;20296;-69
2023/03/19 03:20:00;;;;;;;11.60;8.53;;;10.70;99.90;;;;;;5007948;28;20542;-69
2023/03/19 03:22:27;;;;;;;9.90;8.90;;;10.70;99.90;;;;;;5008081;28;20201;-69
2023/03/19 03:24:54;;;;;;;10.77;8.53;;;10.80;99.90;;;;;;5007951;28;20209;-69
2023/03/19 03:27:21;;;;;;;10.50;8.33;;;10.70;99.90;;;;;;5007566;28;20843;-69
2023/03/19 03:29:48;;;;;;;9.60;8.17;;;10.70;99.90;;;;;;5007687;28;20213;-70
2023/03/19 03:32:16;;;;;;;10.03;8.40;;;10.70;99.90;;;;;;5008006;28;20229;-70
2023/03/19 03:34:44;;;;;;;10.50;9.07;;;10.70;99.90;;;;;;5007190;28;20675;-69
2023/03/19 03:37:13;;;;;;;10.37;8.23;;;10.60;99.90;;;;;;5007744;28;20971;-69
2023/03/19 03:39:40;;;;;;;11.80;9.43;;;10.50;99.90;;;;;;5007476;28;20198;-70
2023/03/19 03:42:07;;;;;;;10.43;8.83;;;10.50;99.90;;;;;;5007427;28;20308;-69
2023/03/19 03:44:34;;;;;;;11.30;9.50;;;10.50;99.90;;;;;;5007300;28;20305;-69
2023/03/19 03:47:00;;;;;;;9.43;8.47;;;10.40;99.90;;;;;;5007321;28;20751;-69
2023/03/19 03:49:27;;;;;;;10.60;9.50;;;10.30;99.90;;;;;;5006904;28;20755;-70
2023/03/19 03:51:54;;;;;;;11.90;9.20;;;10.30;99.90;;;;;;5006869;28;20244;-70
2023/03/19 03:54:23;;;;;;;11.80;9.43;;;10.30;99.90;;;;;;5005363;28;20206;-69
2023/03/19 03:56:50;;;;;;;10.50;9.00;;;10.30;99.90;;;;;;5007643;28;20289;-70
2023/03/19 03:59:17;;;;;;;10.30;9.00;;;10.30;99.90;;;;;;5007732;28;20368;-70
2023/03/19 04:01:43;;;;;;;9.93;8.80;;;10.30;99.90;;;;;;5007066;28;21018;-70
2023/03/19 04:04:10;;;;;;;10.87;9.73;;;10.30;99.90;;;;;;5007428;28;20317;-70
2023/03/19 04:06:37;;;;;;;10.63;9.37;;;10.30;99.90;;;;;;5007312;28;20761;-71
2023/03/19 04:09:06;;;;;;;11.40;8.90;;;10.30;99.90;;;;;;5006991;28;20361;-70
2023/03/19 04:11:35;;;;;;;10.13;9.23;;;10.30;99.90;;;;;;5007029;28;20320;-69
2023/03/19 04:14:03;;;;;;;9.90;8.90;;;10.30;99.90;;;;;;5006913;28;20676;-69
2023/03/19 04:16:30;;;;;;;13.30;9.30;;;10.30;99.90;;;;;;5006943;28;20205;-70
2023/03/19 04:18:57;;;;;;;10.10;9.10;;;10.20;99.90;;;;;;5006534;28;20217;-69
2023/03/19 04:21:24;;;;;;;9.97;8.97;;;10.20;99.90;;;;;;5006001;28;20263;-70
2023/03/19 04:23:50;;;;;;;10.97;9.10;;;10.20;99.90;;;;;;5006944;28;20213;-69
2023/03/19 04:26:17;;;;;;;10.00;8.93;;;10.20;99.90;;;;;;5006948;28;20297;-70
2023/03/19 04:28:46;;;;;;;10.37;8.50;;;10.20;99.90;;;;;;5006794;28;20229;-70
2023/03/19 04:31:12;;;;;;;10.20;9.20;;;10.20;99.90;;;;;;5006466;28;20243;-69
2023/03/19 04:33:39;;;;;;;15.30;9.80;;;10.20;99.90;;;;;;5006311;28;20205;-69
2023/03/19 04:36:07;;;;;;;10.63;9.53;;;10.20;99.90;;;;;;5006428;28;20209;-69
2023/03/19 04:38:34;;;;;;;10.77;9.63;;;10.20;99.90;;;;;;5006416;28;20285;-70
2023/03/19 04:41:01;;;;;;;10.43;9.20;;;10.20;99.90;;;;;;5007113;28;20308;-70
2023/03/19 04:43:28;;;;;;;10.27;9.27;;;10.20;99.90;;;;;;5026350;28;20213;-70
2023/03/19 04:45:57;;;;;;;15.53;9.60;;;10.20;99.90;;;;;;5026250;28;20535;-70
2023/03/19 04:48:24;;;;;;;11.30;9.30;;;10.30;99.90;;;;;;5024385;28;20209;-70
2023/03/19 04:50:52;;;;;;;11.23;10.03;;;10.30;99.90;;;;;;5006047;28;20209;-70
2023/03/19 04:53:20;;;;;;;10.77;9.67;;;10.30;99.90;;;;;;5006308;28;20213;-70
2023/03/19 04:55:47;;;;;;;15.90;9.40;;;10.30;99.90;;;;;;5005892;28;20212;-70
2023/03/19 04:58:14;;;;;;;10.63;9.53;;;10.20;99.90;;;;;;4988020;28;20518;-69
2023/03/19 05:00:40;;;;;;;10.77;9.60;;;10.20;99.90;;;;;;5004222;28;20770;-69
2023/03/19 05:03:09;;;;;;;10.80;9.60;;;10.20;99.90;;;;;;5006277;28;20619;-69
2023/03/19 05:05:36;;;;;;;12.77;9.93;;;10.20;99.90;;;;;;5005681;28;20205;-69
2023/03/19 05:08:02;;;;;;;11.20;10.00;;;10.10;99.90;;;;;;5005697;28;20297;-69
2023/03/19 05:10:31;;;;;;;11.00;9.83;;;10.10;99.90;;;;;;5005780;28;20351;-70
2023/03/19 05:12:58;;;;;;;11.17;9.97;;;10.00;99.90;;;;;;5005634;28;20640;-71
2023/03/19 05:15:25;;;;;;;13.30;10.57;;;10.00;99.90;;;;;;5005729;28;20220;-71
2023/03/19 05:17:52;;;;;;;11.93;10.37;;;10.00;99.90;;;;;;5005805;28;20218;-71
2023/03/19 05:20:20;;;;;;;11.53;10.23;;;9.90;99.90;;;;;;5005742;28;20209;-71
2023/03/19 05:22:47;;;;;;;13.67;10.33;;;9.90;99.90;;;;;;5005305;28;20652;-70
2023/03/19 05:25:14;;;;;;;11.97;10.53;;;9.90;99.90;;;;;;5005791;28;20300;-70
2023/03/19 05:27:41;;;;;;;12.13;10.93;;;9.80;99.90;;;;;;5006028;28;20213;-70
2023/03/19 05:30:09;;;;;;;12.67;10.93;;;9.80;99.90;;;;;;5006124;28;20244;-70
2023/03/19 05:32:37;;;;;;;11.93;10.67;;;9.80;99.90;;;;;;5005368;28;20225;-70
2023/03/19 05:35:05;;;;;;;12.30;11.03;;;9.80;99.90;;;;;;5005462;28;20292;-70
2023/03/19 05:37:33;;;;;;;12.60;10.50;;;9.80;99.90;;;;;;5005371;28;20950;-70
2023/03/19 05:40:00;;;;;;;13.60;10.53;;;9.80;99.90;;;;;;5005675;28;20202;-70
2023/03/19 05:42:27;;;;;;;11.67;10.47;;;9.80;99.90;;;;;;5005573;28;20360;-70
2023/03/19 05:44:54;;;;;;;13.17;10.53;;;9.80;99.90;;;;;;5005733;28;21007;-70
2023/03/19 05:47:21;;;;;;;11.83;10.63;;;9.80;99.90;;;;;;4988798;28;20198;-70
2023/03/19 05:49:48;;;;;;;12.57;11.27;;;9.80;99.90;;;;;;5005208;28;20739;-70
2023/03/19 05:52:15;;;;;;;12.40;10.80;;;9.80;99.90;;;;;;5005471;28;20269;-70
2023/03/19 05:54:43;;;;;;;11.50;10.40;;;9.80;99.90;;;;;;5005061;28;20205;-71
2023/03/19 05:57:10;;;;;;;13.50;11.00;;;9.80;99.90;;;;;;5005444;28;20213;-70
2023/03/19 05:59:37;;;;;;;12.70;10.87;;;9.90;99.90;;;;;;5000749;28;20288;-70
2023/03/19 06:02:04;;;;;;;13.13;10.30;;;9.90;99.90;;;;;;5005234;28;20278;-71
2023/03/19 06:04:30;;;;;;;11.03;9.93;;;9.90;99.90;;;;;;5005317;28;20296;-71
2023/03/19 06:06:57;;;;;;;11.93;10.37;;;10.00;99.90;;;;;;5005282;28;20209;-71
2023/03/19 06:09:24;;;;;;;11.27;10.13;;;10.10;99.90;;;;;;5005015;28;20230;-72
2023/03/19 06:11:52;;;;;;;11.10;9.50;;;10.20;99.90;;;;;;4996152;28;20242;-72
2023/03/19 06:14:19;;;;;;;11.07;9.80;;;10.30;99.90;;;;;;4985649;28;20206;-72
2023/03/19 06:16:46;;;;;;;11.83;9.77;;;10.30;99.90;;;;;;4985272;28;20209;-71
2023/03/19 06:19:13;;;;;;;11.50;10.30;;;10.30;99.90;;;;;;4985352;28;20218;-71
2023/03/19 06:21:40;;;;;;;10.80;9.70;;;10.40;99.90;;;;;;5001614;28;20289;-71
2023/03/19 06:24:07;;;;;;;10.60;9.60;;;10.40;99.90;;;;;;5004917;28;20309;-71
2023/03/19 06:26:36;;;;;;;10.13;8.90;;;10.40;99.90;;;;;;5005032;28;20749;-71
2023/03/19 06:29:05;;;;;;;11.90;9.57;;;10.50;99.90;;;;;;5004852;28;20557;-71
2023/03/19 06:31:31;;;;;;;9.03;8.23;;;10.40;99.90;;;;;;5004930;28;20264;-71
2023/03/19 06:33:58;;;;;;;9.97;8.97;;;10.10;99.90;;;;;;5004643;28;20209;-71
2023/03/19 06:36:26;;;;;;;9.90;9.00;;;9.90;99.90;;;;;;5004564;28;20198;-72
2023/03/19 06:38:52;;;;;;;11.57;10.00;;;9.90;99.90;;;;;;5004799;28;20209;-72
2023/03/19 06:41:20;;;;;;;10.27;9.23;;;10.00;99.90;;;;;;5004579;28;20307;-70
2023/03/19 06:43:47;;;;;;;12.80;10.03;;;10.10;99.90;;;;;;5006583;28;20220;-71
2023/03/19 06:46:15;;;;;;;10.63;9.50;;;10.20;99.90;;;;;;5008335;28;20256;-71
2023/03/19 06:48:42;;;;;;;11.30;9.70;;;10.20;99.90;;;;;;5008656;28;20948;-71
2023/03/19 06:51:09;;;;;;;11.07;9.47;;;10.30;99.90;;;;;;5008932;28;20464;-71
2023/03/19 06:53:36;;;;;;;13.73;10.50;;;10.20;99.90;;;;;;5008508;28;20708;-72
2023/03/19 06:56:03;;;;;;;11.33;10.13;;;9.80;99.90;;;;;;5008406;28;20690;-71
2023/03/19 06:58:30;;;;;;;12.87;11.37;;;9.60;99.90;;;;;;5008122;28;20212;-71
2023/03/19 07:00:57;;;;;;;12.97;10.93;;;9.50;99.90;;;;;;4998316;28;20206;-70
2023/03/19 07:03:25;;;;;;;13.33;11.33;;;9.50;99.90;;;;;;4989126;28;20206;-70
2023/03/19 07:05:53;;;;;;;12.47;10.93;;;9.60;99.90;;;;;;4988302;28;20296;-70
2023/03/19 07:08:20;;;;;;;12.93;11.63;;;9.60;99.90;;;;;;4991723;28;20878;-71
2023/03/19 07:10:47;;;;;;;13.03;11.70;;;9.70;99.90;;;;;;5007679;28;20275;-71
2023/03/19 07:13:14;;;;;;;12.83;11.47;;;9.80;99.90;;;;;;4988009;28;20250;-71
2023/03/19 07:15:41;;;;;;;12.80;11.07;;;9.80;99.90;;;;;;4988830;28;20210;-70
2023/03/19 07:18:08;;;;;;;14.20;10.97;;;9.90;99.90;;;;;;4988259;28;20437;-71
2023/03/19 07:20:36;;;;;;;13.37;10.93;;;9.90;99.90;;;;;;5004994;28;20801;-71
2023/03/19 07:23:03;;;;;;;11.63;10.17;;;10.00;99.90;;;;;;5008062;28;20213;-70
2023/03/19 07:25:30;;;;;;;13.83;11.00;;;9.90;99.90;;;;;;5008199;28;20296;-70
2023/03/19 07:27:57;;;;;;;12.90;10.30;;;9.90;99.90;;;;;;5007568;28;20213;-70
2023/03/19 07:30:24;;;;;;;11.37;10.17;;;9.90;99.90;;;;;;5007732;28;20309;-70
2023/03/19 07:32:51;;;;;;;12.37;10.53;;;10.00;99.90;;;;;;5007729;28;20881;-70
2023/03/19 07:35:18;;;;;;;11.13;10.13;;;10.00;99.90;;;;;;5007550;28;21085;-71
2023/03/19 07:37:46;;;;;;;12.33;10.93;;;10.00;99.90;;;;;;5007558;28;20247;-72
2023/03/19 07:40:13;;;;;;;14.87;10.23;;;10.00;99.90;;;;;;5008034;28;20308;-72
2023/03/19 07:42:40;;;;;;;11.23;9.63;;;10.00;99.90;;;;;;4997003;28;20205;-72
2023/03/19 07:45:08;;;;;;;11.20;10.00;;;10.00;99.90;;;;;;5005966;28;20202;-72
2023/03/19 07:47:35;;;;;;;12.83;10.07;;;10.00;99.90;;;;;;5006503;28;20213;-72
2023/03/19 07:50:02;;;;;;;11.43;10.00;;;10.10;99.90;;;;;;5005665;28;20977;-72
2023/03/19 07:52:29;;;;;;;12.43;9.83;;;10.10;99.90;;;;;;5005326;28;20240;-72
2023/03/19 07:54:58;;;;;;;10.17;9.17;;;10.20;99.90;;;;;;5005615;28;20211;-72
2023/03/19 07:57:25;;;;;;;11.17;8.97;;;10.20;99.90;;;;;;5005532;28;20328;-72
2023/03/19 07:59:53;;;;;;;9.93;9.03;;;10.30;99.90;;;;;;5005743;28;20220;-72
2023/03/19 08:02:20;;;;;;;10.50;9.50;;;10.30;99.90;;;;;;5005511;28;20218;-72
2023/03/19 08:04:47;;;;;;;10.13;8.57;;;10.30;99.90;;;;;;5005352;28;20308;-72
2023/03/19 08:07:14;;;;;;;11.60;9.10;;;10.30;99.90;;;;;;5005713;28;20292;-72
2023/03/19 08:09:41;;;;;;;10.80;9.47;;;10.30;99.90;;;;;;5005601;28;20320;-73
2023/03/19 08:12:10;;;;;;;11.20;9.17;;;10.30;99.90;;;;;;5005550;28;20237;-72
2023/03/19 08:14:37;;;;;;;11.63;9.67;;;10.30;99.90;;;;;;5005051;28;20293;-72
2023/03/19 08:17:04;;;;;;;11.03;9.83;;;10.20;99.90;;;;;;5005080;28;20308;-72
2023/03/19 08:19:31;;;;;;;10.40;9.40;;;10.20;99.90;;;;;;5005571;28;20245;-73
2023/03/19 08:21:58;;;;;;;10.97;9.87;;;10.20;99.90;;;;;;5005162;28;20213;-73
2023/03/19 08:24:25;;;;;;;11.13;9.40;;;10.30;99.90;;;;;;5005115;28;20214;-73
2023/03/19 08:26:52;;;;;;;13.37;10.50;;;10.30;99.90;;;;;;5004850;28;20272;-73
2023/03/19 08:29:20;;;;;;;12.00;10.43;;;10.20;99.90;;;;;;5005671;28;20213;-73
2023/03/19 08:31:47;;;;;;;12.23;10.93;;;10.20;99.90;;;;;;5005093;28;20217;-73
2023/03/19 08:34:14;;;;;;;13.60;11.23;;;10.30;99.90;;;;;;5004418;28;20348;-73
2023/03/19 08:36:41;;;;;;;14.73;11.13;;;10.30;99.90;;;;;;5005055;28;20594;-73
2023/03/19 08:39:08;;;;;;;12.20;11.00;;;10.30;99.90;;;;;;5005468;28;20750;-74
2023/03/19 08:41:35;;;;;;;13.07;10.73;;;10.30;99.90;;;;;;5002972;28;20212;-73
2023/03/19 08:44:01;;;;;;;11.93;10.67;;;10.30;99.90;;;;;;5005361;28;20205;-73
2023/03/19 08:46:30;;;;;;;11.57;10.40;;;10.30;99.90;;;;;;5005212;28;20212;-73
2023/03/19 08:48:57;;;;;;;12.10;10.90;;;10.30;99.90;;;;;;5005312;28;20248;-73
2023/03/19 08:51:25;;;;;;;12.17;10.97;;;10.40;99.90;;;;;;5005634;28;20305;-73
2023/03/19 08:53:51;;;;;;;11.40;9.67;;;10.40;99.90;;;;;;5005278;28;20256;-73
2023/03/19 08:56:18;;;;;;;12.17;10.43;;;10.40;99.90;;;;;;5005351;28;20231;-73
2023/03/19 08:58:45;;;;;;;10.90;9.90;;;10.40;99.90;;;;;;5005086;28;20299;-73
2023/03/19 09:01:14;;;;;;;13.80;10.37;;;10.50;99.90;;;;;;5004715;28;20292;-73
2023/03/19 09:03:44;;;;;;;10.57;9.57;;;10.50;99.90;;;;;;5004401;28;20309;-73
2023/03/19 09:06:13;;;;;;;11.47;10.30;;;10.50;99.90;;;;;;5003952;28;20213;-73
2023/03/19 09:08:40;;;;;;;13.33;10.27;;;10.50;99.90;;;;;;5004578;28;20213;-73
2023/03/19 09:11:07;;;;;;;10.63;9.53;;;10.50;99.90;;;;;;5004259;28;20460;-73
2023/03/19 09:13:34;;;;;;;10.67;9.67;;;10.50;99.90;;;;;;5004837;28;20332;-73
2023/03/19 09:16:01;;;;;;;11.40;9.37;;;10.50;99.90;;;;;;5004929;28;20296;-73
2023/03/19 09:18:28;;;;;;;11.07;10.07;;;10.50;99.90;;;;;;5004690;28;20245;-73
2023/03/19 09:20:56;;;;;;;10.97;9.87;;;10.60;99.90;;;;;;5004037;28;20219;-73
2023/03/19 09:23:24;;;;;;;11.80;10.27;;;10.60;99.90;;;;;;5004468;28;20664;-73
2023/03/19 09:25:51;;;;;;;11.10;9.93;;;10.60;99.90;;;;;;5004314;28;20210;-73
2023/03/19 09:28:18;;;;;;;11.27;9.80;;;10.70;99.90;;;;;;5003694;28;20337;-73
2023/03/19 09:30:46;;;;;;;10.57;9.47;;;10.70;99.90;;;;;;5003961;28;20744;-73
2023/03/19 09:33:13;;;;;;;11.23;10.10;;;10.70;99.90;;;;;;5004012;28;20731;-73
2023/03/19 09:35:40;;;;;;;10.27;9.27;;;10.80;99.90;;;;;;5004235;28;20296;-73
2023/03/19 09:38:09;;;;;;;9.90;9.00;;;10.90;99.90;;;;;;5004146;28;20205;-73
2023/03/19 09:40:41;;;;;;;9.70;8.80;;;11.10;99.90;;;;;;5004097;28;20206;-73
2023/03/19 09:43:27;;;;;;;9.50;8.53;;;11.10;99.90;;;;;;5004035;28;20610;-72
2023/03/19 09:45:54;;;;;;;10.13;9.10;;;11.20;99.90;;;;;;5004527;28;20219;-73
2023/03/19 09:48:36;;;;;;;8.97;8.07;;;11.30;99.90;;;;;;5004136;28;20264;-73
2023/03/19 09:51:05;;;;;;;9.27;8.47;;;11.30;99.90;;;;;;5005212;28;20189;-73
2023/03/19 09:53:41;;;;;;;10.00;9.00;;;11.40;99.90;;;;;;5005081;28;20355;-73
2023/03/19 09:56:13;;;;;;;10.90;8.73;;;11.40;99.90;;;;;;5005731;28;20789;-73
2023/03/19 09:58:40;;;;;;;9.70;8.63;;;11.40;99.90;;;;;;5005392;28;20202;-73
2023/03/19 10:01:07;;;;;;;10.67;8.53;;;11.50;99.90;;;;;;5005235;28;20208;-73
2023/03/19 10:03:46;;;;;;;9.33;8.43;;;11.50;99.90;;;;;;5004850;28;20756;-73
2023/03/19 10:06:28;;;;;;;10.20;7.90;;;11.50;99.90;;;;;;5005537;28;20275;-74
2023/03/19 10:09:10;;;;;;;12.33;8.50;;;11.60;99.90;;;;;;5005002;28;20221;-73
2023/03/19 10:11:51;;;;;;;10.50;8.93;;;11.60;99.90;;;;;;5005378;28;20233;-73
2023/03/19 10:14:49;;;;;;;9.80;8.37;;;11.70;99.90;;;;;;5005621;28;20257;-73
2023/03/19 10:17:19;;;;;;;9.27;7.97;;;11.70;99.90;;;;;;4968464;28;20313;-73
2023/03/19 10:19:52;;;;;;;8.70;7.80;;;11.70;99.90;;;;;;4999130;28;20389;-73
2023/03/19 10:22:24;;;;;;;11.50;8.77;;;11.80;99.90;;;;;;5007371;28;20376;-74
2023/03/19 10:24:56;;;;;;;10.43;8.80;;;11.80;99.90;;;;;;5007253;28;20201;-74
2023/03/19 10:27:28;;;;;;;9.63;8.73;;;11.80;99.90;;;;;;5007226;28;20203;-74
2023/03/19 10:29:55;;;;;;;9.30;8.50;;;11.80;99.90;;;;;;5007036;28;20205;-73
2023/03/19 10:32:33;;;;;;;9.43;8.63;;;11.80;99.90;;;;;;5007061;28;20221;-73
2023/03/19 10:35:04;;;;;;;9.60;8.63;;;11.80;99.90;;;;;;5007078;28;21037;-74
2023/03/19 10:37:31;;;;;;;9.90;9.00;;;11.80;99.90;;;;;;5007164;28;20312;-73
2023/03/19 10:40:01;;;;;;;12.20;11.00;;;11.90;99.90;;;;;;5006929;28;20295;-74
2023/03/19 10:42:53;;;;;;;11.43;9.43;;;11.80;99.90;;;;;;5006810;28;20296;-73
2023/03/19 10:45:26;;;;;;;9.23;8.33;;;11.90;99.90;;;;;;5007395;28;20229;-73
2023/03/19 10:47:54;;;;;;;9.37;8.33;;;11.90;99.90;;;;;;5007118;28;20271;-73
2023/03/19 10:50:27;;;;;;;9.30;8.50;;;11.90;99.90;;;;;;5006606;28;20209;-73
2023/03/19 10:53:04;;;;;;;9.20;8.30;;;11.90;99.90;;;;;;4992640;28;20210;-74
2023/03/19 10:55:33;;;;;;;9.20;8.20;;;11.90;99.90;;;;;;5006945;28;20255;-73
2023/03/19 10:58:05;;;;;;;8.80;7.93;;;12.00;99.90;;;;;;5006867;28;20823;-73
2023/03/19 11:00:34;;;;;;;11.47;8.03;;;12.00;99.90;;;;;;5006675;28;20703;-73
2023/03/19 11:03:04;;;;;;;8.70;7.97;;;12.00;99.90;;;;;;5006479;28;20676;-73
2023/03/19 11:05:33;;;;;;;10.60;7.97;;;12.00;99.90;;;;;;5006661;28;20648;-73
2023/03/19 11:08:02;;;;;;;8.70;7.90;;;12.00;99.90;;;;;;5006343;28;20223;-73
2023/03/19 11:10:33;;;;;;;8.67;7.87;;;12.00;99.90;;;;;;5006308;28;20248;-73
2023/03/19 11:13:03;;;;;;;8.80;8.00;;;12.00;99.90;;;;;;5006024;28;20655;-73
2023/03/19 11:15:36;;;;;;;9.90;8.63;;;12.00;99.90;;;;;;5006309;28;20255;-73
2023/03/19 11:18:07;;;;;;;8.83;8.07;;;12.00;99.90;;;;;;5006393;28;20201;-73
2023/03/19 11:20:36;;;;;;;9.30;8.40;;;12.00;99.90;;;;;;5006037;28;20543;-73
2023/03/19 11:23:10;;;;;;;8.60;7.80;;;12.00;99.90;;;;;;5006314;28;20762;-73
2023/03/19 11:25:41;;;;;;;8.83;7.93;;;12.00;99.90;;;;;;5006499;28;20193;-73
2023/03/19 11:28:12;;;;;;;8.57;7.77;;;12.10;99.90;;;;;;5006513;28;20198;-73
2023/03/19 11:30:50;;;;;;;8.17;7.47;;;12.10;99.90;;;;;;5005901;28;20209;-73
2023/03/19 11:33:35;;;;;;;8.10;7.40;;;12.20;99.90;;;;;;5006487;28;20217;-73
2023/03/19 11:36:09;;;;;;;9.03;7.17;;;12.20;99.90;;;;;;4999497;28;20193;-73
2023/03/19 11:38:48;;;;;;;8.17;7.37;;;12.30;99.90;;;;;;4988019;28;20208;-73
2023/03/19 11:41:26;;;;;;;8.33;7.13;;;12.20;99.90;;;;;;5001523;28;20210;-73
2023/03/19 11:43:58;;;;;;;6.73;6.13;;;12.30;99.90;;;;;;4986315;28;20198;-73
2023/03/19 11:46:38;;;;;;;6.90;6.20;;;12.30;99.90;;;;;;4986549;28;20807;-74
2023/03/19 11:49:26;;;;;;;6.13;5.73;;;12.30;99.90;;;;;;4990632;28;20294;-74
2023/03/19 11:52:00;;;;;;;7.03;6.43;;;12.30;99.90;;;;;;5005235;28;20197;-74
2023/03/19 11:54:36;;;;;;;8.00;7.30;;;12.30;99.90;;;;;;5005752;28;20225;-74
2023/03/19 11:57:11;;;;;;;9.37;7.23;;;12.30;99.90;;;;;;5005725;28;20233;-73
2023/03/19 12:00:01;;;;;;;7.17;6.53;;;12.40;99.90;;;;;;5005411;28;20210;-72
2023/03/19 12:03:04;;;;;;;6.43;5.93;;;12.40;99.90;;;;;;4985601;28;20289;-73
2023/03/19 12:05:33;;;;;;;8.20;7.50;;;12.50;99.90;;;;;;4986257;28;20204;-73
2023/03/19 12:08:25;;;;;;;7.83;7.03;;;12.50;99.90;;;;;;5004843;28;20591;-72
2023/03/19 12:11:01;;;;;;;15.20;13.37;;;12.50;99.90;;;;;;5006119;28;20237;-73
2023/03/19 12:13:39;;;;;;;9.87;8.50;;;12.60;99.90;;;;;;5006772;28;20217;-73
2023/03/19 12:16:17;;;;;;;6.77;6.17;;;12.60;99.90;;;;;;5006942;28;20206;-73
2023/03/19 12:19:15;;;;;;;6.37;5.73;;;12.70;99.90;;;;;;5006654;28;20288;-73
2023/03/19 12:21:54;;;;;;;6.50;6.00;;;12.70;99.90;;;;;;4981697;28;20578;-73
2023/03/19 12:24:33;;;;;;;6.30;5.73;;;12.80;99.90;;;;;;5006668;28;20300;-73
2023/03/19 12:27:13;;;;;;;5.97;5.50;;;12.90;99.90;;;;;;5005102;28;20301;-73
2023/03/19 12:29:49;;;;;;;6.17;5.67;;;13.10;99.90;;;;;;5005810;28;20229;-73
2023/03/19 12:32:41;;;;;;;7.83;6.20;;;13.30;99.90;;;;;;5005555;28;20291;-73
2023/03/19 12:35:13;;;;;;;6.13;5.63;;;13.40;99.90;;;;;;5005562;28;20265;-73
2023/03/19 12:37:45;;;;;;;6.20;5.60;;;13.60;99.90;;;;;;5006287;28;20296;-73
2023/03/19 12:40:26;;;;;;;7.17;5.57;;;13.80;99.90;;;;;;5005720;28;20193;-74
2023/03/19 12:42:57;;;;;;;6.80;5.83;;;14.00;99.90;;;;;;5001749;28;20208;-73
2023/03/19 12:45:30;;;;;;;6.53;5.93;;;14.20;99.90;;;;;;5005558;28;20244;-73
2023/03/19 12:48:05;;;;;;;6.93;6.23;;;14.30;99.90;;;;;;5003253;28;20205;-74
2023/03/19 12:50:34;;;;;;;7.53;5.83;;;14.40;99.90;;;;;;5005685;28;20201;-73